createdAt,value
2022-12-13T01:15:26.201Z,8.00
2022-12-13T01:18:34.379Z,9.03
2022-12-13T01:21:39.718Z,9.13
2022-12-13T01:24:46.050Z,7.83
2022-12-13T01:27:53.988Z,8.55
2022-12-13T01:30:58.814Z,10.20
2022-12-13T01:34:04.923Z,11.50
2022-12-13T01:37:10.360Z,12.30
2022-12-13T01:40:17.059Z,12.95
2022-12-13T01:43:25.471Z,16.02
2022-12-13T01:46:31.464Z,17.92
2022-12-13T01:49:36.094Z,13.95
2022-12-13T01:52:44.948Z,12.70
2022-12-13T01:55:52.573Z,10.28
2022-12-13T01:58:59.072Z,11.38
2022-12-13T02:02:04.358Z,10.50
2022-12-13T02:05:22.148Z,8.50
2022-12-13T02:08:28.159Z,10.78
2022-12-13T02:11:34.514Z,8.98
2022-12-13T02:14:41.108Z,10.23
2022-12-13T02:18:18.719Z,11.88
2022-12-13T02:21:35.004Z,10.25
2022-12-13T02:25:10.081Z,10.00
2022-12-13T02:28:45.661Z,11.18
2022-12-13T02:32:18.156Z,14.25
2022-12-13T02:35:47.551Z,11.55
2022-12-13T02:39:14.123Z,10.85
2022-12-13T02:42:32.652Z,10.23
2022-12-13T02:45:57.535Z,13.08
2022-12-13T02:49:02.211Z,13.30
2022-12-13T02:52:07.552Z,11.63
2022-12-13T02:55:12.326Z,10.13
2022-12-13T02:58:18.115Z,12.58
2022-12-13T03:01:50.494Z,11.30
2022-12-13T03:06:00.244Z,10.32
2022-12-13T03:09:03.400Z,11.25
2022-12-13T03:13:13.624Z,12.28
2022-12-13T03:19:45.446Z,11.48
2022-12-13T03:22:51.420Z,10.65
2022-12-13T03:25:57.818Z,11.68
2022-12-13T03:29:03.854Z,13.53
2022-12-13T03:32:11.336Z,13.05
2022-12-13T03:35:22.160Z,15.20
2022-12-13T03:38:24.151Z,13.43
2022-12-13T03:41:34.919Z,14.50
2022-12-13T03:44:40.302Z,13.25
2022-12-13T03:47:46.032Z,14.30
2022-12-13T03:50:50.898Z,16.82
2022-12-13T03:53:57.256Z,22.98
2022-12-13T03:57:03.118Z,15.28
2022-12-13T04:00:09.539Z,17.12
2022-12-13T04:03:15.035Z,15.00
2022-12-13T04:06:22.241Z,13.40
2022-12-13T04:09:26.636Z,13.32
2022-12-13T04:12:49.393Z,29.55
2022-12-13T04:15:58.036Z,14.58
2022-12-13T04:19:03.267Z,16.23
2022-12-13T04:22:08.962Z,14.75
2022-12-13T04:25:15.177Z,12.82
2022-12-13T04:28:22.313Z,16.37
2022-12-13T04:31:28.737Z,14.00
2022-12-13T04:34:37.494Z,16.35
2022-12-13T04:37:43.363Z,14.23
2022-12-13T04:40:50.112Z,12.10
2022-12-13T04:43:55.566Z,14.07
2022-12-13T04:47:01.097Z,14.25
2022-12-13T04:50:06.819Z,13.93
2022-12-13T04:53:04.879Z,18.48
2022-12-13T04:56:11.014Z,16.10
2022-12-13T04:59:15.714Z,16.80
2022-12-13T05:02:23.573Z,16.27
2022-12-13T05:05:27.868Z,18.95
2022-12-13T05:08:33.155Z,14.38
2022-12-13T05:11:38.746Z,15.88
2022-12-13T05:14:45.889Z,16.93
2022-12-13T05:17:51.491Z,14.50
2022-12-13T05:20:57.787Z,18.15
2022-12-13T05:24:03.301Z,18.42
2022-12-13T05:27:24.569Z,18.87
2022-12-13T05:30:15.325Z,13.45
2022-12-13T05:33:19.927Z,22.98
2022-12-13T05:36:25.947Z,14.20
2022-12-13T05:39:32.624Z,18.60
2022-12-13T05:42:38.313Z,18.82
2022-12-13T05:45:45.107Z,14.50
2022-12-13T05:48:51.733Z,15.25
2022-12-13T05:51:57.681Z,13.88
2022-12-13T05:55:05.140Z,15.40
2022-12-13T05:58:13.349Z,14.70
2022-12-13T06:01:22.139Z,15.72
2022-12-13T06:07:34.110Z,16.67
2022-12-13T06:10:39.570Z,19.23
2022-12-13T06:13:44.592Z,15.55
2022-12-13T06:16:51.637Z,20.00
2022-12-13T06:19:58.099Z,14.68
2022-12-13T06:23:02.760Z,15.03
2022-12-13T06:26:01.330Z,18.77
2022-12-13T06:29:00.262Z,16.97
2022-12-13T06:32:11.139Z,14.33
2022-12-13T06:38:31.526Z,15.93
2022-12-13T06:41:32.204Z,14.85
2022-12-13T06:44:37.459Z,15.85
2022-12-13T06:47:42.932Z,13.58
2022-12-13T06:50:48.948Z,16.70
2022-12-13T06:53:55.417Z,14.25
2022-12-13T06:57:01.802Z,15.35
2022-12-13T07:00:06.643Z,14.53
2022-12-13T07:03:11.968Z,13.25
2022-12-13T07:06:29.560Z,13.50
2022-12-13T07:09:40.064Z,13.53
2022-12-13T07:12:47.916Z,11.50
2022-12-13T07:15:54.233Z,13.93
2022-12-13T07:19:01.619Z,13.80
2022-12-13T07:22:07.065Z,15.15
2022-12-13T07:25:27.947Z,22.15
2022-12-13T07:28:24.126Z,16.90
2022-12-13T07:31:30.889Z,18.30
2022-12-13T07:34:35.654Z,17.35
2022-12-13T07:37:42.761Z,14.13
2022-12-13T07:40:52.210Z,12.40
2022-12-13T07:43:57.908Z,12.43
2022-12-13T07:47:02.830Z,13.65
2022-12-13T07:50:24.307Z,13.05
2022-12-13T07:53:18.575Z,14.55
2022-12-13T07:56:25.135Z,14.25
2022-12-13T07:59:28.428Z,13.40
2022-12-13T08:02:33.310Z,13.50
2022-12-13T08:05:39.384Z,21.68
2022-12-13T08:08:45.342Z,17.92
2022-12-13T08:11:50.932Z,16.02
2022-12-13T08:14:56.177Z,22.70
2022-12-13T08:18:02.413Z,20.25
2022-12-13T08:21:37.280Z,19.90
2022-12-13T08:24:15.303Z,21.42
2022-12-13T08:27:06.401Z,18.05
2022-12-13T08:30:13.609Z,17.52
2022-12-13T08:33:19.759Z,16.07
2022-12-13T08:36:29.460Z,19.48
2022-12-13T08:39:36.467Z,19.90
2022-12-13T08:42:43.030Z,17.70
2022-12-13T08:45:48.919Z,19.10
2022-12-13T08:48:55.564Z,20.62
2022-12-13T08:52:01.541Z,21.60
2022-12-13T08:55:01.807Z,23.30
2022-12-13T08:58:08.995Z,17.73
2022-12-13T09:01:13.637Z,19.65
2022-12-13T09:04:31.500Z,17.40
2022-12-13T09:07:28.810Z,17.42
2022-12-13T09:10:38.712Z,17.85
2022-12-13T09:13:44.776Z,16.17
2022-12-13T09:16:51.696Z,14.80
2022-12-13T09:19:57.954Z,15.43
2022-12-13T09:23:04.186Z,17.77
2022-12-13T09:26:10.732Z,16.40
2022-12-13T09:29:17.260Z,17.60
2022-12-13T09:32:21.928Z,17.92
2022-12-13T09:35:27.473Z,20.10
2022-12-13T09:38:33.129Z,18.82
2022-12-13T09:41:53.782Z,17.98
2022-12-13T09:45:22.196Z,16.15
2022-12-13T09:48:14.521Z,19.65
2022-12-13T09:51:28.347Z,14.87
2022-12-13T09:54:44.818Z,16.10
2022-12-13T09:57:45.998Z,15.10
2022-12-13T10:00:51.094Z,15.68
2022-12-13T10:03:58.580Z,18.62
2022-12-13T10:07:08.536Z,15.18
2022-12-13T10:10:15.523Z,13.20
2022-12-13T10:13:37.202Z,17.73
2022-12-13T10:16:51.883Z,16.52
2022-12-13T10:19:59.537Z,16.30
2022-12-13T10:26:14.874Z,15.58
2022-12-13T10:29:18.824Z,24.00
2022-12-13T10:32:28.358Z,30.48
2022-12-13T10:35:46.207Z,18.13
2022-12-13T10:38:54.435Z,15.08
2022-12-13T10:41:59.126Z,20.82
2022-12-13T10:45:04.627Z,15.32
2022-12-13T10:48:10.592Z,18.15
2022-12-13T10:51:21.685Z,15.30
2022-12-13T10:54:38.240Z,22.07
2022-12-13T10:57:40.276Z,111.90
2022-12-13T11:00:56.007Z,109.78
2022-12-13T11:04:25.411Z,28.02
2022-12-13T11:07:45.744Z,19.75
2022-12-13T11:10:52.768Z,20.00
2022-12-13T11:15:09.809Z,21.60
2022-12-13T11:18:34.581Z,24.95
2022-12-13T11:21:45.096Z,31.93
2022-12-13T11:24:54.494Z,62.15
2022-12-13T11:28:31.930Z,28.62
2022-12-13T11:31:59.610Z,28.40
2022-12-13T11:35:05.673Z,23.60
2022-12-13T11:38:07.964Z,16.87
2022-12-13T11:41:32.371Z,25.15
2022-12-13T11:45:22.785Z,24.15
2022-12-13T11:48:45.538Z,28.25
2022-12-13T11:52:06.159Z,29.90
2022-12-13T11:55:32.322Z,20.12
2022-12-13T11:59:24.066Z,23.35
2022-12-13T12:02:44.329Z,21.87
2022-12-13T12:05:56.230Z,20.43
2022-12-13T12:09:08.300Z,14.53
2022-12-13T12:12:22.089Z,12.70
2022-12-13T12:15:41.483Z,14.15
2022-12-13T12:18:42.159Z,15.38
2022-12-13T12:22:15.387Z,15.13
2022-12-13T12:25:42.506Z,13.08
2022-12-13T12:29:19.437Z,13.85
2022-12-13T12:32:48.611Z,18.92
2022-12-13T12:36:20.111Z,16.00
2022-12-13T12:39:40.510Z,28.20
2022-12-13T12:43:18.758Z,31.40
2022-12-13T12:47:08.793Z,26.33
2022-12-13T12:50:11.441Z,18.80
2022-12-13T12:53:54.690Z,13.08
2022-12-13T12:57:39.570Z,19.82
2022-12-13T13:00:55.332Z,21.52
2022-12-13T13:04:02.321Z,18.67
2022-12-13T13:07:31.251Z,17.00
2022-12-13T13:10:32.741Z,23.25
2022-12-13T13:14:01.642Z,14.78
2022-12-13T13:17:08.900Z,15.08
2022-12-13T13:20:39.320Z,22.32
2022-12-13T13:23:46.764Z,19.73
2022-12-13T13:27:01.456Z,16.17
2022-12-13T13:30:07.133Z,11.22
2022-12-13T13:33:12.485Z,19.17
2022-12-13T13:36:29.001Z,15.30
2022-12-13T13:39:36.760Z,12.20
2022-12-13T13:42:45.663Z,21.40
2022-12-13T13:46:14.584Z,29.05
2022-12-13T13:49:21.908Z,22.40
2022-12-13T13:52:36.727Z,13.20
2022-12-13T13:56:14.116Z,15.75
2022-12-13T13:59:50.910Z,17.37
2022-12-13T14:03:34.840Z,16.82
2022-12-13T14:07:27.011Z,23.45
2022-12-13T14:10:58.383Z,23.80
2022-12-13T14:14:52.120Z,20.95
2022-12-13T14:18:49.064Z,15.93
2022-12-13T14:22:24.805Z,9.68
2022-12-13T14:25:59.092Z,8.85
2022-12-13T14:29:11.151Z,6.97
2022-12-13T14:32:26.581Z,4.85
2022-12-13T14:35:45.177Z,5.33
2022-12-13T14:38:51.194Z,4.47
2022-12-13T14:42:03.230Z,7.00
2022-12-13T14:45:08.341Z,7.25
2022-12-13T14:48:28.096Z,9.83
2022-12-13T14:51:47.218Z,9.18
2022-12-13T14:55:15.850Z,9.85
2022-12-13T14:58:32.570Z,8.58
2022-12-13T15:01:53.586Z,10.08
2022-12-13T15:05:00.019Z,8.48
2022-12-13T15:08:10.785Z,9.78
2022-12-13T15:11:14.243Z,8.43
2022-12-13T15:14:21.182Z,8.23
2022-12-13T15:17:43.110Z,8.73
2022-12-13T15:20:54.456Z,7.47
2022-12-13T15:24:02.676Z,10.00
2022-12-13T15:27:11.500Z,7.22
2022-12-13T15:30:17.646Z,7.08
2022-12-13T15:33:44.035Z,10.35
2022-12-13T15:36:44.454Z,8.63
2022-12-13T15:39:54.087Z,10.48
2022-12-13T15:43:00.886Z,8.88
2022-12-13T15:46:06.963Z,7.35
2022-12-13T15:49:14.479Z,6.85
2022-12-13T15:52:22.613Z,7.75
2022-12-13T15:55:33.026Z,4.85
2022-12-13T15:58:48.010Z,4.47
2022-12-13T19:15:55.148Z,12.15
2022-12-13T19:19:01.445Z,12.85
2022-12-13T19:22:07.260Z,13.55
2022-12-13T19:25:12.373Z,11.97
2022-12-13T19:28:21.493Z,13.70
2022-12-13T19:31:32.025Z,13.77
2022-12-13T19:34:37.726Z,13.18
2022-12-13T19:37:44.486Z,14.10
2022-12-13T19:40:49.406Z,12.78
2022-12-13T19:43:59.810Z,14.80
2022-12-13T19:47:06.847Z,16.00
2022-12-13T19:50:13.446Z,14.75
2022-12-13T19:53:18.383Z,14.83
2022-12-13T19:56:25.921Z,18.12
2022-12-13T19:59:31.223Z,15.58
2022-12-13T20:02:36.527Z,19.07
2022-12-13T20:05:36.220Z,17.75
2022-12-13T20:08:41.848Z,16.65
2022-12-13T20:11:48.849Z,17.10
2022-12-13T20:14:55.759Z,18.32
2022-12-13T20:18:02.535Z,18.67
2022-12-13T20:21:21.793Z,17.05
2022-12-13T20:24:28.005Z,19.77
2022-12-13T20:27:33.726Z,19.27
2022-12-13T20:30:40.453Z,17.62
2022-12-13T20:33:45.564Z,21.57
2022-12-13T20:36:51.950Z,21.68
2022-12-13T20:39:58.185Z,22.02
2022-12-13T20:43:04.745Z,22.75
2022-12-13T20:46:21.269Z,19.92
2022-12-13T20:49:28.071Z,23.35
2022-12-13T20:52:32.904Z,21.55
2022-12-13T20:55:39.047Z,23.52
2022-12-13T20:58:44.589Z,22.70
2022-12-13T21:01:51.847Z,22.10
2022-12-13T21:04:57.271Z,22.87
2022-12-13T21:08:19.773Z,23.02
2022-12-13T21:11:27.630Z,21.07
2022-12-13T21:14:40.132Z,26.23
2022-12-13T21:17:45.516Z,24.23
2022-12-13T21:20:45.630Z,25.40
2022-12-13T21:23:31.120Z,24.07
2022-12-13T21:26:28.701Z,22.22
2022-12-13T21:29:21.471Z,23.52
2022-12-13T21:32:27.147Z,22.60
2022-12-13T21:35:32.105Z,17.17
2022-12-13T21:38:37.577Z,17.07
2022-12-13T21:41:43.925Z,17.87
2022-12-13T21:44:51.501Z,17.37
2022-12-13T21:47:58.232Z,17.77
2022-12-13T21:51:06.299Z,15.85
2022-12-13T21:54:11.692Z,15.13
2022-12-13T21:57:29.109Z,12.65
2022-12-13T22:00:24.014Z,18.35
2022-12-13T22:06:33.049Z,18.67
2022-12-13T22:09:38.674Z,17.27
2022-12-13T22:12:49.452Z,15.45
2022-12-13T22:15:54.809Z,17.02
2022-12-13T22:18:59.971Z,17.30
2022-12-13T22:22:04.878Z,17.42
2022-12-13T22:25:11.195Z,20.80
2022-12-13T22:28:17.947Z,16.67
2022-12-13T22:31:28.136Z,17.50
2022-12-13T22:34:31.587Z,20.17
2022-12-13T22:37:37.557Z,20.48
2022-12-13T22:40:43.225Z,20.80
2022-12-13T22:43:52.558Z,22.13
2022-12-13T22:46:58.588Z,22.93
2022-12-13T22:50:04.582Z,21.50
2022-12-13T22:53:10.438Z,25.40
2022-12-13T22:56:22.855Z,19.25
2022-12-13T22:59:21.373Z,20.15
2022-12-13T23:02:27.918Z,23.20
2022-12-13T23:05:34.743Z,22.73
2022-12-13T23:08:43.559Z,18.17
2022-12-13T23:12:06.634Z,24.95
2022-12-13T23:15:11.725Z,24.57
2022-12-13T23:18:16.877Z,21.33
2022-12-13T23:21:22.500Z,20.20
2022-12-13T23:24:28.884Z,19.07
2022-12-13T23:27:34.542Z,18.60
2022-12-13T23:30:39.381Z,21.07
2022-12-13T23:33:44.028Z,20.57
2022-12-13T23:36:48.969Z,16.73
2022-12-13T23:39:54.332Z,19.70
2022-12-13T23:43:00.140Z,19.40
2022-12-13T23:46:05.139Z,18.80
2022-12-13T23:49:12.080Z,17.62
2022-12-13T23:52:17.452Z,20.05
2022-12-13T23:55:22.814Z,22.22
2022-12-13T23:58:28.176Z,21.10
